createdAt,value
2019-03-10T00:01:35.930Z,11.93
2019-03-10T00:06:57.340Z,11.84
2019-03-10T00:12:18.839Z,11.98
2019-03-10T00:17:39.776Z,11.82
2019-03-10T00:23:01.354Z,11.56
2019-03-10T00:28:22.469Z,11.60
2019-03-10T00:33:43.610Z,11.34
2019-03-10T00:39:31.337Z,11.20
2019-03-10T00:45:43.469Z,11.12
2019-03-10T00:51:37.922Z,10.93
2019-03-10T00:56:59.085Z,10.77
2019-03-10T01:02:20.225Z,10.65
2019-03-10T01:07:41.681Z,10.57
2019-03-10T01:13:03.627Z,10.42
2019-03-10T01:18:26.113Z,10.29
2019-03-10T01:23:47.057Z,10.23
2019-03-10T01:29:08.154Z,10.08
2019-03-10T01:35:01.916Z,9.89
2019-03-10T01:40:23.055Z,9.76
2019-03-10T01:45:44.355Z,9.81
2019-03-10T01:51:05.597Z,9.77
2019-03-10T01:56:27.052Z,9.75
2019-03-10T02:01:48.015Z,9.75
2019-03-10T02:07:09.117Z,9.69
2019-03-10T02:12:30.294Z,9.56
2019-03-10T02:17:51.446Z,9.54
2019-03-10T02:23:12.540Z,9.52
2019-03-10T02:28:33.643Z,9.47
2019-03-10T02:33:54.660Z,9.52
2019-03-10T02:39:15.762Z,9.43
2019-03-10T02:44:37.050Z,9.21
2019-03-10T02:49:58.266Z,8.98
2019-03-10T02:55:19.409Z,8.97
2019-03-10T03:00:40.605Z,8.97
2019-03-10T03:06:01.838Z,8.92
2019-03-10T03:11:22.865Z,8.89
2019-03-10T03:16:44.338Z,8.99
2019-03-10T03:22:06.677Z,9.08
2019-03-10T03:27:27.902Z,8.92
2019-03-10T03:32:48.892Z,8.74
2019-03-10T03:38:10.342Z,8.47
2019-03-10T03:43:31.864Z,8.45
2019-03-10T03:48:52.909Z,8.34
2019-03-10T03:54:14.259Z,8.30
2019-03-10T03:59:35.270Z,8.33
2019-03-10T04:04:56.644Z,8.32
2019-03-10T04:10:17.835Z,8.46
2019-03-10T04:15:38.874Z,8.58
2019-03-10T04:20:59.960Z,8.55
2019-03-10T04:26:21.141Z,8.54
2019-03-10T04:31:42.696Z,8.53
2019-03-10T04:37:03.806Z,8.56
2019-03-10T04:42:25.393Z,8.47
2019-03-10T04:47:46.828Z,8.52
2019-03-10T04:53:07.837Z,8.55
2019-03-10T04:58:29.324Z,8.54
2019-03-10T05:03:50.471Z,8.49
2019-03-10T05:09:11.656Z,8.45
2019-03-10T05:14:32.834Z,8.53
2019-03-10T05:19:54.255Z,8.62
2019-03-10T05:25:15.734Z,8.74
2019-03-10T05:30:37.369Z,8.75
2019-03-10T05:35:58.272Z,8.86
2019-03-10T05:41:19.455Z,8.99
2019-03-10T05:46:40.635Z,9.02
2019-03-10T05:52:01.720Z,8.97
2019-03-10T05:57:22.553Z,9.16
2019-03-10T06:02:43.978Z,9.33
2019-03-10T06:08:05.440Z,9.66
2019-03-10T06:13:28.419Z,9.96
2019-03-10T06:18:49.742Z,10.34
2019-03-10T06:24:11.287Z,10.60
2019-03-10T06:29:32.585Z,10.94
2019-03-10T06:34:54.193Z,11.05
2019-03-10T06:40:16.563Z,11.14
2019-03-10T06:45:37.708Z,11.23
2019-03-10T06:50:58.680Z,11.34
2019-03-10T06:56:19.890Z,11.29
2019-03-10T07:01:41.354Z,11.71
2019-03-10T07:07:02.341Z,12.49
2019-03-10T07:12:23.815Z,13.70
2019-03-10T07:17:45.062Z,13.62
2019-03-10T07:23:09.590Z,12.99
2019-03-10T07:28:33.439Z,13.01
2019-03-10T07:34:19.883Z,13.75
2019-03-10T07:39:58.952Z,13.92
2019-03-10T07:45:41.027Z,14.50
2019-03-10T07:51:07.717Z,14.98
2019-03-10T07:56:46.921Z,14.70
2019-03-10T08:02:36.528Z,14.20
2019-03-10T08:08:04.312Z,13.78
2019-03-10T08:13:41.884Z,13.74
2019-03-10T08:19:34.601Z,14.13
2019-03-10T08:25:13.815Z,14.46
2019-03-10T08:30:52.816Z,14.93
2019-03-10T08:36:33.425Z,15.42
2019-03-10T08:42:20.600Z,15.38
2019-03-10T08:47:59.757Z,15.92
2019-03-10T08:53:31.244Z,16.13
2019-03-10T08:59:10.824Z,16.11
2019-03-10T09:04:44.004Z,16.57
2019-03-10T09:10:25.971Z,17.12
2019-03-10T09:16:07.186Z,17.24
2019-03-10T09:21:51.749Z,17.11
2019-03-10T09:27:37.841Z,17.03
2019-03-10T09:33:26.199Z,16.80
2019-03-10T09:39:18.353Z,17.20
2019-03-10T09:44:46.598Z,17.12
2019-03-10T09:50:32.501Z,17.23
2019-03-10T09:56:13.439Z,17.51
2019-03-10T10:01:44.444Z,17.58
2019-03-10T10:07:33.008Z,17.37
2019-03-10T10:13:12.399Z,17.54
2019-03-10T10:18:51.391Z,17.77
2019-03-10T10:24:38.353Z,17.65
2019-03-10T10:30:17.787Z,17.71
2019-03-10T10:35:59.660Z,17.85
2019-03-10T10:41:39.498Z,18.06
2019-03-10T10:47:20.546Z,18.00
2019-03-10T10:53:00.362Z,17.99
2019-03-10T10:58:43.368Z,18.13
2019-03-10T11:04:27.096Z,18.24
2019-03-10T11:10:16.697Z,18.14
2019-03-10T11:16:04.927Z,18.19
2019-03-10T11:21:46.414Z,18.32
2019-03-10T11:27:33.464Z,18.59
2019-03-10T11:33:04.594Z,18.69
2019-03-10T11:38:47.909Z,18.69
2019-03-10T11:44:31.224Z,18.67
2019-03-10T11:50:11.675Z,18.63
2019-03-10T11:55:40.713Z,18.91
2019-03-10T12:01:20.059Z,18.95
2019-03-10T12:06:47.942Z,18.95
2019-03-10T12:12:09.941Z,19.07
2019-03-10T12:17:31.533Z,19.31
2019-03-10T12:22:53.284Z,19.38
2019-03-10T12:28:14.622Z,19.29
2019-03-10T12:33:36.389Z,19.31
2019-03-10T12:38:59.253Z,19.26
2019-03-10T12:44:20.459Z,19.30
2019-03-10T12:49:43.373Z,19.58
2019-03-10T12:55:04.579Z,19.43
2019-03-10T13:00:25.894Z,19.43
2019-03-10T13:05:47.114Z,19.61
2019-03-10T13:11:09.001Z,19.99
2019-03-10T13:16:30.294Z,20.02
2019-03-10T13:21:55.071Z,19.79
2019-03-10T13:27:16.292Z,19.83
2019-03-10T13:32:37.629Z,19.88
2019-03-10T13:37:58.823Z,19.88
2019-03-10T13:43:19.957Z,19.90
2019-03-10T13:48:40.996Z,19.98
2019-03-10T13:54:05.278Z,20.11
2019-03-10T13:59:26.390Z,20.12
2019-03-10T14:04:47.596Z,20.12
2019-03-10T14:10:10.624Z,20.12
2019-03-10T14:15:32.471Z,20.01
2019-03-10T14:20:53.750Z,20.07
2019-03-10T14:26:14.859Z,19.90
2019-03-10T14:31:36.837Z,19.70
2019-03-10T14:36:58.212Z,19.45
2019-03-10T14:42:19.644Z,19.45
2019-03-10T14:47:40.823Z,19.31
2019-03-10T14:53:04.607Z,19.28
2019-03-10T14:58:27.408Z,19.23
2019-03-10T15:03:48.780Z,19.17
2019-03-10T15:09:09.816Z,19.06
2019-03-10T15:14:30.829Z,18.85
2019-03-10T15:19:52.645Z,18.78
2019-03-10T15:25:14.207Z,18.70
2019-03-10T15:30:35.470Z,18.58
2019-03-10T15:35:56.661Z,18.52
2019-03-10T15:41:18.347Z,18.41
2019-03-10T15:46:40.171Z,18.13
2019-03-10T15:52:04.087Z,17.92
2019-03-10T15:57:25.862Z,17.72
2019-03-10T16:02:47.544Z,17.50
2019-03-10T16:08:08.876Z,17.22
2019-03-10T16:13:30.670Z,16.93
2019-03-10T16:18:51.756Z,16.29
2019-03-10T16:24:12.903Z,15.97
2019-03-10T16:29:33.951Z,15.91
2019-03-10T16:34:58.397Z,15.91
2019-03-10T16:40:20.277Z,15.84
2019-03-10T16:45:44.207Z,15.68
2019-03-10T16:51:05.315Z,15.59
2019-03-10T16:56:32.563Z,15.42
2019-03-10T17:01:53.460Z,15.17
2019-03-10T17:07:14.767Z,15.04
2019-03-10T17:12:36.288Z,14.76
2019-03-10T17:17:57.388Z,14.67
2019-03-10T17:23:18.690Z,14.63
2019-03-10T17:28:39.842Z,14.44
2019-03-10T17:34:01.034Z,14.32
2019-03-10T17:39:25.756Z,14.28
2019-03-10T17:44:47.057Z,14.11
2019-03-10T17:50:08.825Z,13.87
2019-03-10T17:55:30.074Z,13.79
2019-03-10T18:00:51.411Z,13.62
2019-03-10T18:06:13.438Z,13.37
2019-03-10T18:11:35.768Z,13.25
2019-03-10T18:16:57.063Z,13.20
2019-03-10T18:22:17.955Z,13.09
2019-03-10T18:27:39.570Z,12.96
2019-03-10T18:33:00.769Z,12.80
2019-03-10T18:38:22.288Z,12.67
2019-03-10T18:43:43.548Z,12.44
2019-03-10T18:49:04.936Z,12.32
2019-03-10T18:54:26.210Z,12.45
2019-03-10T18:59:47.113Z,12.38
2019-03-10T19:05:08.929Z,12.25
2019-03-10T19:10:29.840Z,12.19
2019-03-10T19:15:51.100Z,12.12
2019-03-10T19:21:12.168Z,11.99
2019-03-10T19:26:34.082Z,11.92
2019-03-10T19:31:55.588Z,11.84
2019-03-10T19:37:16.983Z,11.81
2019-03-10T19:42:38.213Z,11.62
2019-03-10T19:47:59.340Z,11.44
2019-03-10T19:53:20.678Z,11.25
2019-03-10T19:58:42.139Z,11.31
2019-03-10T20:04:03.441Z,11.31
2019-03-10T20:09:24.605Z,11.09
2019-03-10T20:14:45.587Z,11.14
2019-03-10T20:20:09.383Z,11.15
2019-03-10T20:25:30.530Z,10.92
2019-03-10T20:30:54.797Z,10.96
2019-03-10T20:36:16.104Z,11.01
2019-03-10T20:41:37.454Z,10.76
2019-03-10T20:47:01.622Z,10.59
2019-03-10T20:52:22.729Z,10.61
2019-03-10T20:57:44.566Z,10.55
2019-03-10T21:03:06.001Z,10.47
2019-03-10T21:08:27.005Z,10.42
2019-03-10T21:13:48.143Z,10.41
2019-03-10T21:19:09.200Z,10.37
2019-03-10T21:24:32.811Z,10.43
2019-03-10T21:29:54.978Z,10.43
2019-03-10T21:35:17.859Z,10.39
2019-03-10T21:40:39.453Z,10.32
2019-03-10T21:46:00.519Z,10.23
2019-03-10T21:51:21.860Z,10.20
2019-03-10T21:56:42.824Z,10.22
2019-03-10T22:02:05.070Z,10.11
2019-03-10T22:07:26.758Z,10.00
2019-03-10T22:12:48.017Z,9.89
2019-03-10T22:18:09.019Z,9.81
2019-03-10T22:23:29.824Z,9.76
2019-03-10T22:28:51.381Z,9.66
2019-03-10T22:34:13.225Z,9.63
2019-03-10T22:39:34.214Z,9.56
2019-03-10T22:44:55.532Z,9.56
2019-03-10T22:50:17.146Z,9.55
2019-03-10T22:55:38.237Z,9.64
2019-03-10T23:00:59.688Z,9.64
2019-03-10T23:06:21.252Z,9.71
2019-03-10T23:11:42.641Z,9.75
2019-03-10T23:17:03.836Z,9.76
2019-03-10T23:22:25.155Z,9.83
2019-03-10T23:27:47.332Z,9.92
2019-03-10T23:33:08.559Z,9.93
2019-03-10T23:38:29.687Z,10.03
2019-03-10T23:43:50.968Z,10.06
2019-03-10T23:49:12.245Z,10.05
2019-03-10T23:54:33.472Z,9.99
2019-03-10T23:59:54.865Z,9.98
